createdAt,value
2018-12-19T00:00:47.420Z,13.13
2018-12-19T00:03:15.631Z,13.10
2018-12-19T00:05:43.757Z,14.30
2018-12-19T00:08:11.903Z,14.83
2018-12-19T00:10:39.998Z,15.13
2018-12-19T00:13:12.326Z,14.67
2018-12-19T00:15:40.438Z,15.80
2018-12-19T00:18:08.527Z,14.23
2018-12-19T00:20:36.780Z,14.25
2018-12-19T00:23:05.658Z,15.73
2018-12-19T00:25:33.840Z,16.33
2018-12-19T00:28:01.967Z,15.27
2018-12-19T00:30:31.954Z,15.20
2018-12-19T00:33:00.114Z,15.10
2018-12-19T00:35:29.229Z,13.90
2018-12-19T00:37:57.324Z,15.50
2018-12-19T00:40:25.435Z,14.67
2018-12-19T00:42:53.546Z,13.90
2018-12-19T00:45:22.259Z,14.10
2018-12-19T00:47:50.375Z,14.00
2018-12-19T00:50:18.451Z,13.80
2018-12-19T00:52:47.414Z,12.93
2018-12-19T00:55:15.559Z,13.50
2018-12-19T00:57:43.654Z,14.13
2018-12-19T01:00:11.871Z,14.40
2018-12-19T01:02:39.986Z,13.10
2018-12-19T01:05:08.051Z,12.90
2018-12-19T01:07:36.244Z,13.63
2018-12-19T01:10:04.825Z,14.20
2018-12-19T01:12:32.937Z,13.37
2018-12-19T01:15:02.760Z,13.00
2018-12-19T01:17:30.867Z,12.70
2018-12-19T01:19:58.948Z,13.70
2018-12-19T01:22:27.043Z,13.70
2018-12-19T01:24:55.245Z,14.80
2018-12-19T01:27:23.342Z,13.78
2018-12-19T01:29:51.480Z,13.50
2018-12-19T01:32:19.572Z,14.28
2018-12-19T01:34:47.663Z,13.77
2018-12-19T01:37:17.910Z,13.95
2018-12-19T01:39:46.471Z,13.20
2018-12-19T01:42:14.619Z,14.15
2018-12-19T01:44:42.767Z,12.77
2018-12-19T01:47:11.476Z,13.57
2018-12-19T01:49:39.578Z,14.10
2018-12-19T01:52:07.681Z,13.67
2018-12-19T01:54:35.780Z,14.47
2018-12-19T01:57:04.293Z,14.30
2018-12-19T01:59:32.409Z,13.90
2018-12-19T02:02:00.504Z,13.97
2018-12-19T02:04:28.777Z,13.90
2018-12-19T02:06:57.021Z,13.97
2018-12-19T02:09:28.832Z,14.50
2018-12-19T02:11:56.465Z,13.93
2018-12-19T02:14:24.782Z,14.30
2018-12-19T02:16:52.911Z,15.33
2018-12-19T02:19:21.017Z,14.43
2018-12-19T02:21:49.111Z,14.47
2018-12-19T02:24:17.212Z,12.70
2018-12-19T02:26:45.324Z,14.53
2018-12-19T02:29:13.433Z,14.57
2018-12-19T02:31:41.688Z,15.53
2018-12-19T02:34:09.871Z,15.00
2018-12-19T02:36:37.968Z,13.87
2018-12-19T02:39:07.711Z,13.62
2018-12-19T02:41:36.159Z,14.50
2018-12-19T02:44:04.603Z,14.10
2018-12-19T02:46:32.762Z,14.40
2018-12-19T02:49:00.851Z,14.03
2018-12-19T02:51:28.929Z,14.03
2018-12-19T02:53:57.086Z,15.03
2018-12-19T02:56:25.202Z,14.00
2018-12-19T02:58:53.382Z,14.73
2018-12-19T03:01:21.504Z,14.38
2018-12-19T03:03:49.607Z,14.20
2018-12-19T03:06:19.576Z,14.53
2018-12-19T03:08:47.756Z,15.03
2018-12-19T03:11:16.324Z,15.40
2018-12-19T03:13:46.404Z,14.27
2018-12-19T03:16:14.637Z,14.13
2018-12-19T03:18:42.749Z,14.38
2018-12-19T03:21:10.887Z,16.23
2018-12-19T03:23:38.975Z,15.13
2018-12-19T03:26:07.087Z,15.13
2018-12-19T03:28:35.325Z,15.10
2018-12-19T03:31:03.508Z,14.57
2018-12-19T03:33:31.636Z,14.53
2018-12-19T03:36:00.361Z,14.30
2018-12-19T03:38:28.603Z,14.37
2018-12-19T03:40:56.740Z,14.35
2018-12-19T03:43:25.282Z,15.07
2018-12-19T03:45:53.373Z,15.18
2018-12-19T03:48:26.838Z,14.80
2018-12-19T03:50:55.058Z,14.60
2018-12-19T03:53:23.150Z,14.43
2018-12-19T03:55:52.383Z,13.85
2018-12-19T03:58:21.150Z,14.33
2018-12-19T04:00:49.273Z,14.63
2018-12-19T04:03:17.407Z,13.67
2018-12-19T04:05:46.174Z,13.80
2018-12-19T04:08:14.805Z,15.00
2018-12-19T04:10:42.887Z,15.47
2018-12-19T04:13:11.051Z,15.13
2018-12-19T04:15:39.385Z,16.83
2018-12-19T04:18:08.403Z,16.40
2018-12-19T04:20:36.496Z,14.93
2018-12-19T04:23:04.689Z,15.30
2018-12-19T04:25:32.870Z,14.98
2018-12-19T04:28:01.272Z,15.23
2018-12-19T04:30:29.422Z,15.47
2018-12-19T04:32:57.811Z,15.00
2018-12-19T04:35:25.947Z,14.77
2018-12-19T04:37:54.171Z,15.00
2018-12-19T04:40:22.266Z,15.20
2018-12-19T04:42:51.886Z,15.87
2018-12-19T04:45:20.064Z,16.03
2018-12-19T04:47:48.130Z,16.77
2018-12-19T04:50:16.464Z,15.73
2018-12-19T04:52:45.139Z,15.83
2018-12-19T04:55:13.301Z,16.77
2018-12-19T04:57:41.439Z,16.07
2018-12-19T05:00:09.784Z,17.23
2018-12-19T05:02:37.880Z,16.63
2018-12-19T05:05:06.171Z,15.57
2018-12-19T05:07:35.140Z,16.20
2018-12-19T05:10:03.260Z,18.27
2018-12-19T05:12:31.415Z,17.93
2018-12-19T05:14:59.510Z,15.30
2018-12-19T05:17:27.710Z,16.53
2018-12-19T05:19:56.894Z,16.40
2018-12-19T05:22:25.448Z,17.37
2018-12-19T05:24:53.571Z,17.80
2018-12-19T05:27:21.890Z,17.52
2018-12-19T05:29:50.086Z,17.33
2018-12-19T05:32:18.171Z,16.52
2018-12-19T05:34:46.294Z,17.67
2018-12-19T05:37:14.571Z,16.67
2018-12-19T05:39:43.139Z,14.83
2018-12-19T05:42:11.348Z,15.63
2018-12-19T05:44:39.453Z,15.87
2018-12-19T05:47:08.554Z,16.43
2018-12-19T05:49:37.328Z,15.63
2018-12-19T05:52:05.752Z,17.03
2018-12-19T05:54:34.191Z,17.17
2018-12-19T05:57:02.529Z,19.53
2018-12-19T05:59:30.702Z,18.87
2018-12-19T06:01:59.055Z,17.90
2018-12-19T06:04:27.171Z,18.07
2018-12-19T06:06:55.295Z,19.10
2018-12-19T06:09:29.813Z,18.03
2018-12-19T06:11:57.932Z,18.77
2018-12-19T06:14:26.093Z,19.07
2018-12-19T06:17:12.806Z,18.57
2018-12-19T06:19:42.524Z,18.80
2018-12-19T06:22:10.611Z,18.87
2018-12-19T06:24:38.695Z,18.87
2018-12-19T06:27:06.818Z,18.77
2018-12-19T06:29:35.041Z,19.60
2018-12-19T06:32:03.170Z,19.70
2018-12-19T06:34:31.376Z,18.80
2018-12-19T06:36:59.495Z,19.88
2018-12-19T06:39:27.732Z,20.23
2018-12-19T06:41:57.611Z,19.12
2018-12-19T06:44:25.719Z,19.33
2018-12-19T06:46:54.455Z,18.77
2018-12-19T06:49:22.593Z,18.43
2018-12-19T06:51:50.691Z,18.87
2018-12-19T06:54:18.763Z,19.87
2018-12-19T06:56:46.875Z,18.80
2018-12-19T07:01:54.199Z,19.83
2018-12-19T07:04:28.977Z,19.53
2018-12-19T07:06:57.105Z,18.50
2018-12-19T07:09:25.210Z,19.90
2018-12-19T07:11:53.375Z,19.27
2018-12-19T07:14:23.402Z,18.47
2018-12-19T07:16:51.516Z,19.37
2018-12-19T07:19:19.613Z,19.60
2018-12-19T07:21:53.390Z,19.95
2018-12-19T07:24:22.029Z,21.93
2018-12-19T07:26:50.125Z,21.57
2018-12-19T07:29:18.195Z,19.43
2018-12-19T07:31:46.953Z,18.62
2018-12-19T07:34:15.082Z,18.87
2018-12-19T07:36:43.179Z,18.33
2018-12-19T07:39:11.908Z,18.27
2018-12-19T07:41:41.537Z,18.25
2018-12-19T07:44:16.198Z,18.97
2018-12-19T07:46:45.720Z,19.37
2018-12-19T07:49:13.869Z,17.93
2018-12-19T07:51:41.972Z,19.57
2018-12-19T07:54:10.313Z,19.43
2018-12-19T07:56:38.598Z,18.77
2018-12-19T07:59:06.733Z,19.57
2018-12-19T08:01:35.156Z,20.00
2018-12-19T08:04:03.431Z,19.13
2018-12-19T08:06:31.671Z,18.93
2018-12-19T08:09:00.742Z,18.87
2018-12-19T08:11:28.858Z,18.17
2018-12-19T08:14:03.399Z,19.53
2018-12-19T08:16:31.695Z,18.32
2018-12-19T08:19:01.956Z,18.13
2018-12-19T08:21:30.812Z,18.87
2018-12-19T08:23:58.899Z,18.23
2018-12-19T08:26:27.031Z,18.53
2018-12-19T08:28:55.311Z,17.80
2018-12-19T08:31:25.685Z,18.80
2018-12-19T08:33:54.031Z,18.73
2018-12-19T08:36:23.571Z,18.98
2018-12-19T08:38:52.404Z,18.10
2018-12-19T08:41:20.909Z,18.10
2018-12-19T08:43:49.604Z,17.53
2018-12-19T08:46:17.683Z,19.17
2018-12-19T08:48:46.902Z,18.10
2018-12-19T08:51:19.575Z,18.47
2018-12-19T08:53:47.765Z,16.77
2018-12-19T08:56:16.488Z,16.17
2018-12-19T08:58:47.790Z,16.80
2018-12-19T09:01:17.076Z,16.13
2018-12-19T09:03:47.142Z,16.97
2018-12-19T09:06:15.301Z,16.77
2018-12-19T09:08:43.522Z,17.60
2018-12-19T09:11:11.717Z,17.17
2018-12-19T09:13:39.901Z,17.47
2018-12-19T09:16:08.021Z,17.62
2018-12-19T09:18:36.159Z,17.97
2018-12-19T09:21:04.603Z,19.67
2018-12-19T09:23:32.687Z,19.97
2018-12-19T09:26:02.643Z,18.97
2018-12-19T09:28:31.284Z,18.80
2018-12-19T09:30:59.367Z,19.00
2018-12-19T09:33:27.800Z,18.92
2018-12-19T09:35:56.270Z,19.17
2018-12-19T09:38:24.983Z,17.77
2018-12-19T09:40:53.201Z,18.40
2018-12-19T09:43:21.298Z,17.43
2018-12-19T09:45:49.403Z,18.48
2018-12-19T09:48:19.211Z,17.07
2018-12-19T09:50:47.291Z,18.43
2018-12-19T09:53:17.432Z,18.23
2018-12-19T09:55:45.537Z,17.07
2018-12-19T09:58:13.629Z,18.07
2018-12-19T10:00:41.754Z,18.23
2018-12-19T10:03:09.848Z,16.90
2018-12-19T10:05:37.958Z,18.03
2018-12-19T10:08:06.494Z,16.80
2018-12-19T10:10:36.380Z,16.63
2018-12-19T10:13:04.478Z,17.60
2018-12-19T10:15:32.582Z,17.00
2018-12-19T10:18:00.684Z,17.07
2018-12-19T10:20:28.768Z,15.70
2018-12-19T10:22:56.877Z,17.40
2018-12-19T10:25:25.028Z,17.07
2018-12-19T10:27:53.199Z,16.75
2018-12-19T10:30:21.316Z,14.83
2018-12-19T10:33:01.166Z,14.10
2018-12-19T10:35:29.247Z,14.80
2018-12-19T10:37:57.425Z,13.97
2018-12-19T10:40:25.608Z,14.00
2018-12-19T10:42:53.692Z,14.53
2018-12-19T10:45:23.975Z,14.27
2018-12-19T10:47:52.807Z,15.20
2018-12-19T10:50:20.917Z,14.90
2018-12-19T10:52:48.991Z,14.73
2018-12-19T10:55:17.138Z,14.97
2018-12-19T10:57:45.314Z,15.77
2018-12-19T11:00:18.909Z,15.68
2018-12-19T11:02:47.106Z,17.00
2018-12-19T11:05:16.412Z,15.90
2018-12-19T11:07:44.666Z,14.60
2018-12-19T11:10:26.591Z,15.10
2018-12-19T11:12:54.780Z,15.97
2018-12-19T11:15:23.383Z,16.13
2018-12-19T11:17:51.459Z,16.73
2018-12-19T11:20:19.547Z,16.60
2018-12-19T11:22:47.655Z,16.63
2018-12-19T11:25:15.835Z,16.10
2018-12-19T11:27:43.927Z,16.00
2018-12-19T11:30:16.044Z,15.80
2018-12-19T11:32:49.612Z,14.40
2018-12-19T11:35:17.703Z,15.33
2018-12-19T11:37:45.849Z,15.60
2018-12-19T11:40:13.972Z,15.50
2018-12-19T11:42:42.095Z,15.90
2018-12-19T11:45:10.243Z,15.37
2018-12-19T11:47:38.340Z,15.93
2018-12-19T11:50:07.703Z,15.03
2018-12-19T11:52:35.882Z,16.33
2018-12-19T11:55:04.075Z,14.50
2018-12-19T11:57:37.202Z,15.57
